• Join FlightAware (Why Join?)
  • Login
  • US Flag 
12:56AM EDT


 

Airport Tracker/Info


-or-


 

Live Flight TrackerFlight Track Log ✈ N996WW ✈ 11-Jul-2013 ✈ KYIP - KGRR

Flight Track Log - Related Links

Times and Time Zones

All times are in EDT time to prevent confusion due to time zone crossing. See the N996WW flight status page for this flight to view local times or setup timezone preferences in your user account.

Time Position Orientation Groundspeed Altitude Reporting Facility
EDT Latitude Longitude Course Direction KTS MPH feet Rate Location/Type
02:55PM 42.3181 -83.7650 295° West 87 100 5,000  Level Cleveland Center
02:56PM 42.3317 -83.8050 295° West 85 98 5,400 240 Climbing Cleveland Center
02:57PM 42.3411 -83.8392 291° West 86 99 5,700 240 Climbing Cleveland Center
02:58PM 42.3553 -83.8594 313° West 86 99 5,900 60 Climbing Cleveland Center
02:59PM 42.3669 -83.8856 301° West 101 116 5,900  Level Cleveland Center
03:00PM 42.3847 -83.9231 303° West 106 122 5,900 -60 Level Cleveland Center
03:02PM 42.4007 -83.9544 305° West  Level FlightAware Approximate
03:09PM 42.4912 -84.1327 305° West  Level FlightAware Approximate
03:10PM 42.5045 -84.1590 304° West  Level FlightAware Approximate
03:11PM 42.5171 -84.1848 291° West  Level FlightAware Approximate
03:12PM 42.5252 -84.2137 291° West  Level FlightAware Approximate
03:13PM 42.5332 -84.2427 291° West  Level FlightAware Approximate
03:14PM 42.5413 -84.2716 291° West  Level FlightAware Approximate
03:15PM 42.5493 -84.3006 291° West  Level FlightAware Approximate
03:16PM 42.5574 -84.3296 291° West  Level FlightAware Approximate
03:17PM 42.5654 -84.3586 291° West  Level FlightAware Approximate
03:18PM 42.5735 -84.3876 291° West  Level FlightAware Approximate
03:19PM 42.5815 -84.4165 291° West  Level FlightAware Approximate
03:20PM 42.5895 -84.4456 291° West  Level FlightAware Approximate
03:21PM 42.5975 -84.4746 291° West  Level FlightAware Approximate
03:22PM 42.6055 -84.5036 291° West  Level FlightAware Approximate
03:23PM 42.6135 -84.5326 291° West  Level FlightAware Approximate
03:24PM 42.6215 -84.5617 291° West  Level FlightAware Approximate
03:25PM 42.6295 -84.5907 290° West  Level FlightAware Approximate
03:26PM 42.6375 -84.6198 290° West  Level FlightAware Approximate
03:27PM 42.6454 -84.6488 290° West  Level FlightAware Approximate
03:28PM 42.6534 -84.6779 290° West  Level FlightAware Approximate
03:29PM 42.6614 -84.7069 290° West  Level FlightAware Approximate
03:30PM 42.6693 -84.7360 290° West  Level FlightAware Approximate
03:30PM 42.7408 -85.0553 290° West 120 138 5,300  Level Chicago Center
03:31PM 42.6772 -84.7651 290° West  Level FlightAware Approximate
03:31PM 42.7531 -85.0983 291° West 123 142 4,600  Level Chicago Center
03:32PM 42.6852 -84.7942 290° West  Level FlightAware Approximate
03:32PM 42.7639 -85.1400 290° West 119 137 4,200  Level Chicago Center
03:33PM 42.6931 -84.8233 290° West  Level FlightAware Approximate
03:33PM 42.7747 -85.1831 289° West 120 138 3,900  Level Chicago Center
03:34PM 42.7010 -84.8524 290° West  Level FlightAware Approximate
03:35PM 42.7089 -84.8815 290° West  Level FlightAware Approximate
03:35PM 42.7833 -85.2256 285° West 118 136 3,700  Level Chicago Center
03:36PM 42.7168 -84.9107 290° West  Level FlightAware Approximate
03:36PM 42.7944 -85.2775 286° West 119 137 3,100  Level Chicago Center
03:37PM 42.8044 -85.3186 288° West 118 136 2,900 -120 Descending Chicago Center
03:38PM 42.8136 -85.3597 287° West 115 132 2,900 -300 Level Chicago Center
03:39PM 42.8214 -85.4017 284° West 114 131 2,400 -480 Descending Chicago Center
03:40PM 42.8303 -85.4433 286° West 115 132 2,000 -360 Descending Chicago Center
03:41PM 42.8433 -85.4808 295° West 113 130 1,700 -480 Descending Chicago Center
03:42PM 42.8569 -85.5119 301° West 95 109 1,100 -420 Descending Chicago Center
03:43PM 42.8697 -85.5289 316° Northwest 89 102 900 -240 Descending Chicago Center
03:45PM 42.8808 -85.5228 109° East  Level Estimated